Time;durP1;ratioP1;P1;durP2;ratioP2;P2;SDS_P1;SDS_P2;PMS_P1;PMS_P2;Temp;Humidity;BMP_temperature;BMP_pressure;BME280_temperature;BME280_humidity;BME280_pressure;Samples;Min_cycle;Max_cycle;Signal;HPM_P1;HPM_P2
2023/04/02 00:01:46;;;;;;;5.10;1.30;;;;;;;6.88;80.31;98672.27;78548;1298;3051390;-71
2023/04/02 00:04:20;;;;;;;5.10;1.40;;;;;;;6.56;81.40;98670.08;79690;1292;3018925;-73
2023/04/02 00:07:14;;;;;;;8.80;1.80;;;;;;;6.41;82.11;98673.04;78533;1298;3053342;-73
2023/04/02 00:09:42;;;;;;;3.70;1.20;;;;;;;6.16;82.94;98671.64;78323;1292;3057374;-73
2023/04/02 00:12:17;;;;;;;5.20;1.50;;;;;;;6.10;83.47;98675.96;79668;1293;3018930;-73
2023/04/02 00:14:48;;;;;;;5.20;1.20;;;;;;;6.02;83.80;98675.52;78384;1297;3051681;-77
2023/04/02 00:17:15;;;;;;;7.00;1.30;;;;;;;5.89;84.26;98674.31;79783;1292;3011460;-73
2023/04/02 00:19:59;;;;;;;4.00;1.20;;;;;;;5.81;85.07;98673.88;79683;1298;3013618;-76
2023/04/02 00:22:28;;;;;;;6.80;1.40;;;;;;;6.42;83.45;98676.82;78493;1292;3051359;-74
2023/04/02 00:24:55;;;;;;;4.80;1.40;;;;;;;6.98;80.61;98674.11;79812;1298;3013432;-73
2023/04/02 00:27:25;;;;;;;6.30;1.10;;;;;;;7.03;79.53;98672.48;79534;1292;3011940;-71
2023/04/02 00:29:53;;;;;;;7.00;1.60;;;;;;;6.86;79.64;98676.73;80069;1292;3012785;-71
2023/04/02 00:32:25;;;;;;;3.70;1.10;;;;;;;6.81;79.82;98676.35;80091;1298;3011514;-68
2023/04/02 00:34:54;;;;;;;3.80;1.00;;;;;;;6.57;80.55;98680.30;78877;1298;3052913;-73
2023/04/02 00:37:26;;;;;;;5.10;1.60;;;;;;;6.39;81.17;98681.13;79919;1296;3013181;-71
2023/04/02 00:39:59;;;;;;;5.50;1.10;;;;;;;6.19;81.76;98682.93;78601;1292;3057221;-72
2023/04/02 00:42:29;;;;;;;2.80;1.10;;;;;;;6.09;82.46;98681.92;79669;1293;3011436;-75
2023/04/02 00:44:57;;;;;;;6.50;1.40;;;;;;;6.05;82.51;98681.80;78371;1292;3052884;-73
2023/04/02 00:47:26;;;;;;;4.90;1.30;;;;;;;5.95;82.76;98678.11;79648;1298;3020686;-74
2023/04/02 00:50:07;;;;;;;3.20;1.00;;;;;;;5.86;83.20;98677.03;78512;1298;3052873;-73
2023/04/02 00:52:36;;;;;;;5.80;1.30;;;;;;;6.53;81.52;98675.29;78684;1298;3068897;-73
2023/04/02 00:55:40;;;;;;;3.40;1.00;;;;;;;6.99;78.83;98674.77;79772;1292;3013926;-70
2023/04/02 00:58:33;;;;;;;6.80;1.00;;;;;;;7.07;78.05;98680.57;78419;1293;3051405;-78
2023/04/02 01:01:15;;;;;;;3.70;1.20;;;;;;;6.85;78.48;98682.01;78546;1292;3053916;-71
2023/04/02 01:03:56;;;;;;;3.00;1.10;;;;;;;6.66;78.95;98675.80;78443;1297;3050557;-75
2023/04/02 01:06:28;;;;;;;6.00;1.10;;;;;;;6.44;79.67;98676.37;78393;1298;3052547;-73
2023/04/02 01:09:17;;;;;;;5.80;1.80;;;;;;;6.28;80.41;98675.67;79537;1301;3011613;-71
2023/04/02 01:12:01;;;;;;;4.10;1.10;;;;;;;6.10;81.10;98672.48;78315;1301;3069830;-73
2023/04/02 01:14:35;;;;;;;4.80;1.10;;;;;;;5.98;81.71;98674.50;78455;1296;3050918;-72
2023/04/02 01:17:25;;;;;;;3.90;1.20;;;;;;;5.98;81.60;98674.00;79676;1294;3011671;-69
2023/04/02 01:19:59;;;;;;;5.40;1.20;;;;;;;5.92;81.97;98674.45;78427;1296;3049739;-71
2023/04/02 01:22:36;;;;;;;5.80;1.50;;;;;;;5.88;82.28;98675.05;79680;1296;3013033;-69
2023/04/02 01:25:05;;;;;;;3.20;0.70;;;;;;;6.48;80.87;98674.03;78475;1297;3051628;-72
2023/04/02 01:27:38;;;;;;;6.70;1.10;;;;;;;6.96;78.36;98670.77;79827;1299;3013315;-77
2023/04/02 01:30:07;;;;;;;4.00;1.00;;;;;;;6.97;77.51;98678.73;78432;1298;3068236;-75
2023/04/02 01:32:34;;;;;;;4.60;1.10;;;;;;;6.89;77.82;98672.89;79725;1298;3013789;-68
2023/04/02 01:35:01;;;;;;;5.00;1.20;;;;;;;6.61;78.73;98670.69;79713;1293;3011850;-73
2023/04/02 01:37:56;;;;;;;4.90;1.10;;;;;;;6.41;79.34;98670.95;78543;1298;3054250;-74
2023/04/02 01:40:26;;;;;;;2.70;1.20;;;;;;;6.25;80.12;98675.15;78498;1298;3050901;-74
2023/04/02 01:43:21;;;;;;;6.20;1.80;;;;;;;6.19;80.30;98671.31;79703;1293;3011471;-74
2023/04/02 01:45:49;;;;;;;8.20;1.10;;;;;;;6.11;80.52;98675.23;78413;1298;3052884;-72
2023/04/02 01:48:20;;;;;;;5.20;1.10;;;;;;;5.95;81.40;98672.41;79734;1297;3013543;-68
2023/04/02 01:50:48;;;;;;;2.40;0.90;;;;;;;5.82;81.90;98676.91;78407;1298;3056873;-69
2023/04/02 01:53:16;;;;;;;2.70;0.80;;;;;;;5.81;82.45;98680.11;79509;1292;3014162;-70
2023/04/02 01:55:45;;;;;;;2.40;0.60;;;;;;;6.32;81.13;98684.33;79743;1295;3013349;-73
2023/04/02 01:58:26;;;;;;;5.80;0.90;;;;;;;6.88;78.85;98683.08;78418;1298;3051430;-71
2023/04/02 02:01:11;;;;;;;4.90;0.70;;;;;;;6.79;78.31;98688.48;78472;1306;3052466;-73
2023/04/02 02:03:42;;;;;;;5.00;1.20;;;;;;;6.71;77.92;98689.48;78389;1292;3069144;-73
2023/04/02 02:06:14;;;;;;;5.00;1.00;;;;;;;6.57;78.45;98688.53;79797;1292;3012746;-71
2023/04/02 02:08:57;;;;;;;3.40;0.80;;;;;;;6.43;78.80;98687.91;78480;1297;3050096;-73
2023/04/02 02:11:27;;;;;;;2.20;0.80;;;;;;;6.31;79.43;98684.76;78398;1292;3053346;-71
2023/04/02 02:14:05;;;;;;;1.60;1.10;;;;;;;6.16;79.96;98684.88;79664;1298;3012841;-71
2023/04/02 02:16:40;;;;;;;6.10;0.90;;;;;;;6.14;80.21;98682.54;78560;1298;3053196;-73
2023/04/02 02:19:35;;;;;;;7.10;0.90;;;;;;;6.03;80.55;98685.56;78964;1300;3011969;-72
2023/04/02 02:22:29;;;;;;;2.10;1.00;;;;;;;5.98;80.99;98686.86;78471;1298;3051956;-72
2023/04/02 02:24:59;;;;;;;5.60;1.00;;;;;;;5.92;80.99;98687.69;78437;1295;3070306;-73
2023/04/02 02:27:26;;;;;;;1.60;0.50;;;;;;;5.82;81.56;98686.45;79662;1299;3012430;-72
2023/04/02 02:30:12;;;;;;;2.60;0.60;;;;;;;6.43;79.85;98684.77;78510;1296;3049608;-71
2023/04/02 02:33:13;;;;;;;4.80;0.80;;;;;;;7.05;77.18;98680.52;78387;1298;3053278;-73
2023/04/02 02:35:53;;;;;;;2.90;0.80;;;;;;;7.05;76.42;98678.77;78406;1298;3051238;-72
2023/04/02 02:38:36;;;;;;;4.70;0.90;;;;;;;6.89;76.62;98676.59;78486;1298;3053295;-71
2023/04/02 02:41:15;;;;;;;5.80;1.10;;;;;;;6.68;77.20;98671.85;78260;1299;3052298;-73
2023/04/02 02:43:56;;;;;;;4.80;1.30;;;;;;;6.34;78.35;98674.81;79193;1298;3011720;-75
2023/04/02 02:46:24;;;;;;;5.40;1.10;;;;;;;6.29;78.76;98674.90;78395;1294;3070444;-77
2023/04/02 02:48:51;;;;;;;4.10;1.10;;;;;;;6.15;78.95;98677.61;79435;1299;3018410;-75
2023/04/02 02:51:22;;;;;;;4.40;1.20;;;;;;;6.07;79.12;98684.62;79483;1292;3011883;-72
2023/04/02 02:53:52;;;;;;;8.50;1.40;;;;;;;6.03;79.47;98680.86;78367;1293;3053080;-75
2023/04/02 02:56:20;;;;;;;2.70;1.10;;;;;;;6.02;79.51;98681.80;79795;1298;3013254;-73
2023/04/02 02:58:47;;;;;;;2.40;1.20;;;;;;;5.98;79.20;98679.57;79471;1301;3011619;-73
2023/04/02 03:01:20;;;;;;;3.90;1.40;;;;;;;5.93;79.47;98684.14;78427;1298;3070097;-72
2023/04/02 03:03:51;;;;;;;3.70;0.70;;;;;;;5.98;78.97;98681.48;79747;1293;3013363;-71
2023/04/02 03:06:20;;;;;;;2.30;0.70;;;;;;;6.39;77.96;98685.28;78448;1298;3057267;-71
2023/04/02 03:09:13;;;;;;;3.90;0.80;;;;;;;6.98;75.60;98687.39;79748;1299;3011488;-76
2023/04/02 03:11:49;;;;;;;5.30;1.10;;;;;;;7.08;74.56;98693.59;78370;1299;3054395;-74
2023/04/02 03:14:52;;;;;;;4.30;1.30;;;;;;;6.92;74.90;98698.31;79205;1298;3011746;-70
2023/04/02 03:17:30;;;;;;;6.40;1.60;;;;;;;6.68;75.05;98698.14;78405;1298;3049817;-70
2023/04/02 03:20:22;;;;;;;5.20;1.00;;;;;;;6.54;75.63;98699.27;78365;1298;3053879;-72
2023/04/02 03:23:06;;;;;;;3.60;1.20;;;;;;;6.45;75.87;98697.02;78532;1299;3054253;-73
2023/04/02 03:25:36;;;;;;;4.00;1.20;;;;;;;6.28;76.48;98694.66;78476;1298;3071501;-75
2023/04/02 03:28:10;;;;;;;7.40;1.10;;;;;;;6.14;76.62;98702.20;79988;1298;3011764;-72
2023/04/02 03:30:46;;;;;;;4.20;1.00;;;;;;;6.12;76.66;98706.48;78398;1299;3058288;-73
2023/04/02 03:33:28;;;;;;;4.10;0.90;;;;;;;5.99;76.98;98709.40;78380;1298;3048801;-74
2023/04/02 03:36:34;;;;;;;2.50;0.80;;;;;;;5.85;77.13;98707.54;78444;1297;3054733;-72
2023/04/02 03:39:08;;;;;;;3.60;1.00;;;;;;;5.74;77.46;98712.10;78550;1306;3050982;-74
2023/04/02 03:41:51;;;;;;;3.00;1.00;;;;;;;5.70;77.41;98709.34;79077;1299;3012082;-73
2023/04/02 03:44:25;;;;;;;1.90;0.80;;;;;;;5.56;77.65;98713.36;78684;1298;3050773;-72
2023/04/02 03:46:58;;;;;;;2.50;0.90;;;;;;;5.58;77.61;98712.23;79622;1298;3011520;-72
2023/04/02 03:49:55;;;;;;;4.10;1.00;;;;;;;5.50;77.68;98712.49;78380;1293;3070615;-71
2023/04/02 03:52:27;;;;;;;2.80;1.10;;;;;;;5.40;77.71;98711.39;78419;1299;3052603;-72
2023/04/02 03:55:00;;;;;;;2.50;1.20;;;;;;;5.40;77.44;98713.00;79235;1298;3012853;-73
2023/04/02 03:57:50;;;;;;;2.80;1.00;;;;;;;5.47;77.08;98715.04;79550;1299;3013491;-74
2023/04/02 04:00:23;;;;;;;3.80;0.90;;;;;;;5.51;76.73;98716.41;78326;1298;3054522;-70
2023/04/02 04:03:38;;;;;;;6.60;0.90;;;;;;;6.32;74.30;98716.13;78536;1298;3049818;-73
2023/04/02 04:06:27;;;;;;;2.10;0.80;;;;;;;6.85;71.38;98717.73;78688;1297;3053678;-73
2023/04/02 04:08:57;;;;;;;2.00;0.80;;;;;;;6.99;70.73;98716.08;78444;1298;3053084;-76
2023/04/02 04:11:29;;;;;;;2.70;1.10;;;;;;;6.76;70.30;98717.70;79852;1294;3014869;-74
2023/04/02 04:14:10;;;;;;;2.90;0.70;;;;;;;6.56;70.65;98719.52;78499;1293;3056203;-74
2023/04/02 04:17:03;;;;;;;2.10;0.80;;;;;;;6.45;70.83;98717.73;78515;1297;3049986;-73
2023/04/02 04:19:45;;;;;;;2.40;1.20;;;;;;;6.35;71.10;98717.02;78461;1298;3053946;-72
2023/04/02 04:22:32;;;;;;;3.00;0.80;;;;;;;6.20;71.34;98723.23;78422;1297;3049092;-72
2023/04/02 04:25:28;;;;;;;3.90;1.00;;;;;;;6.14;71.32;98722.35;78478;1298;3054311;-75
2023/04/02 04:28:06;;;;;;;2.10;1.10;;;;;;;6.12;70.65;98720.72;78528;1298;3052338;-71
2023/04/02 04:30:50;;;;;;;2.50;0.90;;;;;;;6.16;70.45;98725.52;78637;1296;3068398;-74
2023/04/02 04:33:24;;;;;;;2.00;0.90;;;;;;;6.17;70.25;98728.83;78560;1293;3051213;-73
2023/04/02 04:35:59;;;;;;;1.80;1.00;;;;;;;6.09;70.11;98728.86;78533;1298;3057362;-75
2023/04/02 04:38:34;;;;;;;3.20;1.20;;;;;;;6.10;69.85;98727.80;79605;1298;3013428;-75
2023/04/02 04:41:12;;;;;;;2.20;0.90;;;;;;;6.14;69.55;98728.63;78430;1297;3054529;-72
2023/04/02 04:43:49;;;;;;;2.90;1.00;;;;;;;6.14;69.56;98728.45;78397;1298;3050923;-72
2023/04/02 04:46:21;;;;;;;2.50;1.10;;;;;;;6.16;69.37;98729.89;78449;1298;3051874;-72
2023/04/02 04:48:57;;;;;;;3.00;1.10;;;;;;;6.24;69.52;98731.53;79440;1301;3011797;-74
2023/04/02 04:51:30;;;;;;;3.50;1.10;;;;;;;6.25;70.06;98732.88;78316;1302;3068769;-73
2023/04/02 04:53:57;;;;;;;3.10;1.30;;;;;;;6.24;69.44;98730.14;79604;1295;3013483;-70
2023/04/02 04:56:28;;;;;;;5.20;1.30;;;;;;;6.28;68.98;98728.36;78277;1295;3056345;-75
2023/04/02 04:59:12;;;;;;;1.60;1.00;;;;;;;6.25;68.95;98730.80;78297;1301;3050029;-73
2023/04/02 05:01:44;;;;;;;2.20;0.90;;;;;;;6.36;68.73;98734.54;78355;1302;3051827;-71
2023/04/02 05:04:17;;;;;;;1.70;0.90;;;;;;;6.38;68.46;98734.59;79531;1296;3013221;-72
2023/04/02 05:06:59;;;;;;;3.00;1.10;;;;;;;6.31;68.33;98733.59;78557;1297;3053063;-69
2023/04/02 05:09:33;;;;;;;4.50;1.00;;;;;;;6.36;67.93;98734.36;78604;1297;3053896;-73
2023/04/02 05:12:26;;;;;;;2.70;1.00;;;;;;;6.44;68.02;98737.23;78473;1296;3067780;-71
2023/04/02 05:15:01;;;;;;;2.20;1.00;;;;;;;6.42;68.05;98733.71;78445;1296;3050695;-70
2023/04/02 05:17:53;;;;;;;5.50;1.20;;;;;;;6.45;67.72;98737.02;78496;1297;3055935;-67
2023/04/02 05:20:35;;;;;;;3.90;1.20;;;;;;;6.42;67.14;98734.70;78716;1296;3051652;-76
2023/04/02 05:23:20;;;;;;;4.30;1.80;;;;;;;6.45;66.94;98734.91;78544;1298;3053291;-76
2023/04/02 05:25:52;;;;;;;3.40;0.90;;;;;;;6.55;65.97;98736.96;78807;1296;3049856;-69
2023/04/02 05:28:31;;;;;;;3.50;1.40;;;;;;;6.62;65.91;98738.84;79736;1298;3013382;-70
2023/04/02 05:31:10;;;;;;;4.50;1.20;;;;;;;6.74;65.73;98735.21;78243;1302;3052306;-76
2023/04/02 05:33:41;;;;;;;1.80;1.20;;;;;;;6.74;65.71;98738.55;78441;1298;3070443;-70
2023/04/02 05:36:10;;;;;;;3.40;1.30;;;;;;;6.77;65.20;98735.73;79569;1295;3013497;-75
2023/04/02 05:38:43;;;;;;;;;;;;;;;6.83;64.55;98735.92;78510;1295;3055446;-78
2023/04/02 05:41:35;;;;;;;3.30;0.90;;;;;;;6.78;63.92;98737.94;79628;1294;3015232;-72
2023/04/02 05:44:24;;;;;;;4.60;1.10;;;;;;;6.80;64.58;98742.02;78566;1295;3049687;-74
2023/04/02 05:47:21;;;;;;;2.60;1.10;;;;;;;6.87;63.92;98741.27;78380;1298;3054325;-72
2023/04/02 05:49:51;;;;;;;2.80;1.00;;;;;;;6.87;63.60;98738.86;78393;1295;3052188;-73
2023/04/02 05:52:22;;;;;;;3.50;1.00;;;;;;;6.92;64.31;98740.67;79835;1298;3011802;-62
2023/04/02 05:55:22;;;;;;;2.50;1.20;;;;;;;6.94;64.22;98738.81;78517;1297;3051752;-65
2023/04/02 05:57:55;;;;;;;2.90;1.10;;;;;;;6.98;63.34;98738.55;78566;1296;3055986;-71
2023/04/02 06:00:26;;;;;;;2.00;1.00;;;;;;;7.06;63.21;98740.05;79749;1297;3013117;-69
2023/04/02 06:03:38;;;;;;;1.40;1.00;;;;;;;7.12;61.88;98736.73;78293;1296;3053293;-73
2023/04/02 06:06:22;;;;;;;2.40;0.90;;;;;;;7.17;61.67;98736.98;78434;1300;3050752;-70
2023/04/02 06:09:04;;;;;;;3.00;1.30;;;;;;;7.25;61.05;98730.06;78597;1298;3051880;-74
2023/04/02 06:11:40;;;;;;;2.70;1.10;;;;;;;7.36;60.16;98722.09;78661;1298;3050981;-68
2023/04/02 06:14:13;;;;;;;2.90;1.10;;;;;;;7.43;59.96;98720.09;78635;1295;3070081;-71
2023/04/02 06:16:41;;;;;;;2.50;1.30;;;;;;;7.50;59.20;98727.17;79934;1297;3011610;-69
2023/04/02 06:19:22;;;;;;;2.50;1.30;;;;;;;7.49;58.58;98718.17;78349;1298;3057810;-74
2023/04/02 06:21:51;;;;;;;3.30;1.40;;;;;;;7.65;57.78;98718.44;78391;1298;3050993;-68
2023/04/02 06:24:21;;;;;;;2.70;1.20;;;;;;;7.69;58.22;98718.04;79613;1298;3011708;-70
2023/04/02 06:26:56;;;;;;;1.80;1.20;;;;;;;7.67;58.06;98717.09;78093;1301;3025705;-74
2023/04/02 06:29:30;;;;;;;2.80;1.10;;;;;;;7.76;57.27;98718.14;79186;1298;3013048;-70
2023/04/02 06:32:01;;;;;;;2.90;0.90;;;;;;;7.89;57.18;98722.21;79592;1299;3011787;-73
2023/04/02 06:34:30;;;;;;;1.60;0.90;;;;;;;8.01;56.99;98722.04;78497;1295;3052911;-71
2023/04/02 06:37:22;;;;;;;2.10;1.00;;;;;;;8.09;57.31;98721.73;79639;1295;3013276;-67
2023/04/02 06:39:55;;;;;;;2.90;1.00;;;;;;;8.14;57.02;98720.55;78317;1297;3052342;-73
2023/04/02 06:42:25;;;;;;;3.40;1.10;;;;;;;8.25;57.24;98723.65;79798;1295;3015971;-75
2023/04/02 06:44:59;;;;;;;6.90;1.40;;;;;;;8.31;56.63;98721.39;78474;1296;3053605;-72
2023/04/02 06:47:45;;;;;;;3.10;1.20;;;;;;;8.33;55.90;98721.94;78453;1296;3050962;-67
2023/04/02 06:50:30;;;;;;;3.00;1.20;;;;;;;8.43;55.05;98721.64;79057;1296;3013031;-75
2023/04/02 06:53:05;;;;;;;2.10;1.20;;;;;;;8.50;55.03;98724.04;78462;1297;3052284;-70
2023/04/02 06:56:00;;;;;;;3.90;1.50;;;;;;;8.63;54.27;98727.59;79249;1297;3013017;-72
2023/04/02 06:58:31;;;;;;;2.40;1.40;;;;;;;8.76;54.44;98723.45;78348;1296;3054007;-70
2023/04/02 07:00:59;;;;;;;2.00;1.20;;;;;;;8.84;54.33;98721.89;79843;1295;3013367;-71
2023/04/02 07:03:40;;;;;;;4.20;1.50;;;;;;;8.94;54.32;98723.98;78443;1297;3056594;-70
2023/04/02 07:06:23;;;;;;;1.70;1.20;;;;;;;9.03;54.33;98723.80;78341;1298;3050377;-69
2023/04/02 07:08:52;;;;;;;6.00;1.60;;;;;;;9.10;54.05;98724.86;79786;1295;3013311;-74
2023/04/02 07:11:21;;;;;;;1.90;1.00;;;;;;;9.16;53.00;98727.98;78468;1296;3026631;-70
2023/04/02 07:13:50;;;;;;;3.70;1.00;;;;;;;9.27;52.66;98726.06;79901;1298;3013393;-70
2023/04/02 07:16:26;;;;;;;1.20;1.00;;;;;;;9.43;52.90;98729.67;78401;1298;3054448;-73
2023/04/02 07:18:54;;;;;;;4.80;1.40;;;;;;;9.47;51.93;98721.01;79642;1295;3011334;-69
2023/04/02 07:21:25;;;;;;;3.00;1.20;;;;;;;9.58;51.72;98723.60;78429;1295;3050352;-74
2023/04/02 07:23:53;;;;;;;2.00;0.90;;;;;;;9.68;51.43;98725.55;79741;1293;3012634;-75
2023/04/02 07:26:25;;;;;;;3.00;1.20;;;;;;;9.71;50.88;98726.54;79710;1295;3013602;-76
2023/04/02 07:28:54;;;;;;;3.20;1.20;;;;;;;9.61;49.92;98724.25;78483;1298;3051568;-68
2023/04/02 07:31:26;;;;;;;1.90;1.10;;;;;;;9.72;50.44;98728.06;79624;1296;3013880;-68
2023/04/02 07:33:56;;;;;;;3.30;1.20;;;;;;;9.77;50.90;98728.93;78639;1296;3068423;-75
2023/04/02 07:36:23;;;;;;;2.30;1.10;;;;;;;9.83;50.63;98720.46;79772;1299;3011647;-75
2023/04/02 07:38:52;;;;;;;2.30;1.20;;;;;;;9.84;50.18;98725.46;79160;1294;3012056;-72
2023/04/02 07:41:19;;;;;;;2.60;1.40;;;;;;;9.74;49.58;98722.84;79889;1292;3011781;-76
2023/04/02 07:43:46;;;;;;;3.60;1.10;;;;;;;9.78;50.28;98717.88;79959;1294;3012420;-72
2023/04/02 07:46:16;;;;;;;1.90;0.90;;;;;;;9.75;49.84;98717.16;78515;1297;3026566;-74
2023/04/02 07:48:43;;;;;;;1.90;1.00;;;;;;;9.77;50.08;98716.14;79733;1298;3013202;-68
2023/04/02 07:51:28;;;;;;;2.90;1.30;;;;;;;9.74;50.32;98716.02;80560;1295;3011818;-76
2023/04/02 07:53:56;;;;;;;4.90;1.60;;;;;;;9.73;50.38;98712.92;78525;1298;3057335;-75
2023/04/02 07:56:24;;;;;;;2.40;1.10;;;;;;;9.73;50.28;98712.73;79620;1296;3013522;-70
2023/04/02 07:58:50;;;;;;;3.50;1.40;;;;;;;9.74;50.66;98712.20;79676;1295;3011686;-72
2023/04/02 08:01:24;;;;;;;3.20;1.40;;;;;;;9.84;50.86;98712.50;78495;1298;3051770;-69
2023/04/02 08:03:52;;;;;;;3.80;1.70;;;;;;;9.82;51.24;98712.69;79822;1298;3015528;-73
2023/04/02 08:06:21;;;;;;;7.90;2.50;;;;;;;9.87;51.39;98706.19;78422;1298;3029512;-73
2023/04/02 08:08:49;;;;;;;4.40;1.30;;;;;;;9.73;51.12;98699.48;79768;1294;3013781;-73
2023/04/02 08:11:15;;;;;;;3.40;1.80;;;;;;;9.71;51.48;98704.16;79703;1294;3011759;-70
2023/04/02 08:13:44;;;;;;;4.90;1.70;;;;;;;9.74;51.48;98696.95;78417;1296;3052761;-66
2023/04/02 08:16:11;;;;;;;3.50;1.60;;;;;;;9.73;51.62;98698.56;79669;1298;3012945;-67
2023/04/02 08:18:38;;;;;;;3.50;1.60;;;;;;;9.78;51.81;98700.34;79695;1298;3011534;-69
2023/04/02 08:21:07;;;;;;;3.20;1.60;;;;;;;9.84;52.18;98698.23;78473;1295;3026463;-69
2023/04/02 08:23:34;;;;;;;3.30;1.60;;;;;;;9.75;52.10;98695.11;79760;1298;3011429;-71
2023/04/02 08:26:04;;;;;;;3.90;1.80;;;;;;;9.69;52.20;98694.16;79147;1294;3013140;-72
2023/04/02 08:28:31;;;;;;;2.40;1.50;;;;;;;9.72;52.06;98695.02;79741;1296;3013537;-72
2023/04/02 08:31:03;;;;;;;2.70;1.30;;;;;;;9.70;52.08;98694.75;78573;1297;3052178;-73
2023/04/02 08:33:30;;;;;;;3.40;1.40;;;;;;;9.71;51.65;98690.66;79773;1298;3012948;-77
2023/04/02 08:35:57;;;;;;;3.70;1.60;;;;;;;9.75;51.54;98688.34;79747;1295;3011884;-75
2023/04/02 08:38:25;;;;;;;2.60;1.10;;;;;;;9.78;50.83;98686.70;78419;1294;3051385;-73
2023/04/02 08:40:53;;;;;;;2.80;1.30;;;;;;;9.84;50.62;98686.66;79705;1295;3013446;-74
2023/04/02 08:43:42;;;;;;;2.70;1.10;;;;;;;9.88;50.44;98682.02;78409;1298;3053759;-71
2023/04/02 08:46:25;;;;;;;;;;;;;;;10.04;50.61;98686.11;78443;1298;3050748;-67
2023/04/02 08:48:59;;;;;;;3.50;1.20;;;;;;;9.99;49.08;98684.41;78349;1298;3053431;-69
2023/04/02 08:51:34;;;;;;;2.50;1.20;;;;;;;10.03;48.50;98685.98;79776;1295;3011407;-69
2023/04/02 08:54:16;;;;;;;3.20;1.30;;;;;;;10.12;47.99;98690.69;78445;1299;3069358;-69
2023/04/02 08:57:14;;;;;;;4.60;1.40;;;;;;;10.28;48.63;98691.95;76497;1294;3052349;-67
2023/04/02 08:59:49;;;;;;;4.70;1.80;;;;;;;10.36;48.28;98694.17;78343;1296;3058316;-71
2023/04/02 09:02:22;;;;;;;3.70;1.30;;;;;;;10.45;47.94;98692.88;79614;1297;3013216;-68
2023/04/02 09:04:50;;;;;;;3.60;1.50;;;;;;;10.53;47.73;98692.63;78400;1298;3050022;-69
2023/04/02 09:07:17;;;;;;;3.40;1.70;;;;;;;10.53;47.96;98694.21;79714;1298;3013977;-71
2023/04/02 09:09:48;;;;;;;4.20;2.20;;;;;;;10.71;48.11;98697.80;79740;1295;3011602;-71
2023/04/02 09:12:24;;;;;;;2.60;1.50;;;;;;;10.76;48.24;98698.68;78353;1294;3051167;-70
2023/04/02 09:15:12;;;;;;;2.50;1.10;;;;;;;10.83;47.95;98699.35;78521;1295;3058355;-75
2023/04/02 09:17:40;;;;;;;2.20;1.30;;;;;;;10.99;48.27;98695.25;78639;1298;3050289;-70
2023/04/02 09:20:16;;;;;;;3.90;1.50;;;;;;;10.96;48.47;98698.77;79834;1297;3012015;-69
2023/04/02 09:22:45;;;;;;;2.20;1.50;;;;;;;11.00;49.03;98694.85;78589;1298;3050164;-73
2023/04/02 09:25:18;;;;;;;2.60;1.50;;;;;;;11.07;49.45;98695.30;79800;1297;3011860;-72
2023/04/02 09:27:55;;;;;;;4.00;1.60;;;;;;;11.14;49.16;98698.91;78498;1298;3052947;-71
2023/04/02 09:30:28;;;;;;;3.60;1.50;;;;;;;11.10;48.88;98699.15;79756;1295;3013159;-71
2023/04/02 09:32:56;;;;;;;4.20;1.60;;;;;;;11.13;49.26;98699.61;78368;1294;3050878;-70
2023/04/02 09:35:25;;;;;;;7.70;1.90;;;;;;;11.18;49.23;98697.48;79699;1297;3018725;-73
2023/04/02 09:38:11;;;;;;;2.20;1.60;;;;;;;11.22;49.30;98699.50;79636;1295;3011840;-69
2023/04/02 09:40:53;;;;;;;2.40;1.40;;;;;;;11.23;49.44;98699.74;78474;1298;3051018;-73
2023/04/02 09:43:38;;;;;;;3.30;1.20;;;;;;;11.24;49.64;98698.47;78500;1295;3052905;-70
2023/04/02 09:46:12;;;;;;;2.80;1.40;;;;;;;11.26;50.28;98704.11;78638;1298;3052503;-68
2023/04/02 09:48:56;;;;;;;5.40;2.20;;;;;;;11.32;50.27;98696.84;79707;1293;3012169;-70
2023/04/02 09:51:26;;;;;;;3.10;1.50;;;;;;;11.33;50.63;98699.90;78502;1298;3052909;-71
2023/04/02 09:54:01;;;;;;;2.80;1.80;;;;;;;11.41;50.67;98699.10;79730;1296;3013273;-66
2023/04/02 09:56:34;;;;;;;5.10;1.70;;;;;;;11.42;50.82;98700.45;78447;1297;3055166;-69
2023/04/02 09:59:15;;;;;;;3.00;1.60;;;;;;;11.49;51.01;98702.20;79522;1294;3011459;-70
2023/04/02 10:01:44;;;;;;;5.00;1.80;;;;;;;11.52;51.75;98699.85;78456;1298;3053976;-69
2023/04/02 10:04:45;;;;;;;4.00;2.10;;;;;;;11.52;51.72;98706.32;79731;1297;3011712;-70
2023/04/02 10:07:35;;;;;;;6.80;2.00;;;;;;;11.56;51.96;98705.31;78465;1293;3068715;-71
2023/04/02 10:10:37;;;;;;;4.20;2.00;;;;;;;11.62;53.19;98705.40;78455;1297;3052151;-74
2023/04/02 10:13:17;;;;;;;7.00;2.20;;;;;;;11.66;53.21;98703.82;78313;1298;3056405;-75
2023/04/02 10:15:54;;;;;;;4.70;1.90;;;;;;;11.72;52.94;98707.95;78384;1296;3050708;-74
2023/04/02 10:20:33;;;;;;;4.40;2.30;;;;;;;11.91;52.21;98708.08;79983;1302;3013238;-66
2023/04/02 10:23:02;;;;;;;3.20;1.80;;;;;;;11.98;51.25;98704.91;79003;1302;3013935;-73
2023/04/02 10:25:30;;;;;;;3.00;1.80;;;;;;;11.99;51.18;98702.89;79110;1306;3011412;-74
2023/04/02 10:28:37;;;;;;;9.00;2.00;;;;;;;11.97;51.54;98699.39;77852;1307;3053794;-72
2023/04/02 10:31:18;;;;;;;3.70;2.00;;;;;;;12.01;50.45;98693.27;77846;1301;3068010;-70
2023/04/02 10:33:49;;;;;;;9.10;2.60;;;;;;;12.05;50.11;98694.70;76156;1298;5182537;-70
2023/04/02 10:36:43;;;;;;;4.50;2.80;;;;;;;11.89;49.28;98697.17;79406;1301;3013241;-76
2023/04/02 10:39:35;;;;;;;6.70;2.80;;;;;;;11.89;48.57;98696.79;78124;1298;3051153;-70
2023/04/02 10:42:13;;;;;;;4.00;1.90;;;;;;;12.00;48.75;98697.02;78111;1301;3054530;-72
2023/04/02 10:44:50;;;;;;;10.30;2.10;;;;;;;11.99;48.08;98694.29;78138;1301;3050889;-69
2023/04/02 10:47:45;;;;;;;3.70;1.80;;;;;;;12.07;47.64;98700.02;78127;1301;3052343;-69
2023/04/02 10:50:52;;;;;;;3.40;1.90;;;;;;;12.14;46.29;98698.58;78111;1304;3053010;-70
2023/04/02 10:53:21;;;;;;;3.50;2.00;;;;;;;11.95;46.42;98698.28;77717;1305;3070409;-73
2023/04/02 10:56:00;;;;;;;3.70;2.00;;;;;;;11.86;46.07;98704.45;79386;1299;3013330;-74
2023/04/02 10:58:30;;;;;;;3.00;1.70;;;;;;;11.78;45.81;98696.08;78141;1299;3057789;-67
2023/04/02 11:01:12;;;;;;;4.60;2.10;;;;;;;11.71;45.88;98697.50;79358;1295;3012061;-71
2023/04/02 11:03:43;;;;;;;2.70;1.90;;;;;;;11.67;46.49;98696.74;78182;1300;3053283;-70
2023/04/02 11:06:20;;;;;;;4.50;2.00;;;;;;;11.81;46.52;98697.43;79447;1301;3011901;-67
2023/04/02 11:08:50;;;;;;;5.90;2.40;;;;;;;11.83;47.03;98692.86;78230;1298;3053333;-71
2023/04/02 11:11:25;;;;;;;5.00;1.90;;;;;;;11.75;46.59;98696.36;79442;1301;3011577;-70
2023/04/02 11:14:04;;;;;;;3.60;1.90;;;;;;;11.73;46.81;98691.36;78201;1301;3069932;-72
2023/04/02 11:16:32;;;;;;;4.30;2.50;;;;;;;11.74;47.12;98692.91;78211;1301;3052019;-71
2023/04/02 11:19:15;;;;;;;3.60;1.80;;;;;;;11.77;47.54;98689.14;79394;1295;3018661;-72
2023/04/02 11:21:51;;;;;;;7.80;2.20;;;;;;;11.73;47.57;98690.30;78143;1301;3055396;-72
2023/04/02 11:24:32;;;;;;;6.30;2.30;;;;;;;11.69;47.46;98690.83;78936;1300;3011578;-69
2023/04/02 11:27:03;;;;;;;4.90;2.40;;;;;;;11.58;47.73;98685.54;78219;1301;3049812;-72
2023/04/02 11:29:30;;;;;;;4.90;1.90;;;;;;;11.81;47.47;98684.48;79437;1299;3012964;-71
2023/04/02 11:32:12;;;;;;;5.00;2.10;;;;;;;11.81;47.67;98679.34;79432;1304;3013407;-71
2023/04/02 11:34:40;;;;;;;2.40;1.50;;;;;;;11.90;47.60;98679.16;78164;1301;3052190;-69
2023/04/02 11:37:27;;;;;;;2.80;1.80;;;;;;;11.91;47.50;98676.31;79554;1299;3013939;-70
2023/04/02 11:39:58;;;;;;;5.00;2.10;;;;;;;11.95;47.35;98672.88;78190;1298;3053070;-76
2023/04/02 11:42:35;;;;;;;4.40;1.80;;;;;;;11.99;47.18;98666.77;79430;1302;3013486;-68
2023/04/02 11:45:27;;;;;;;4.30;1.70;;;;;;;12.05;47.28;98664.55;78200;1300;3053149;-77
2023/04/02 11:47:58;;;;;;;6.30;1.70;;;;;;;12.16;47.33;98667.15;78211;1301;3053935;-76
2023/04/02 11:50:33;;;;;;;5.10;1.70;;;;;;;12.24;47.30;98664.27;79436;1298;3011647;-72
2023/04/02 11:53:17;;;;;;;4.10;2.00;;;;;;;12.23;47.25;98664.50;78185;1298;3050515;-72
2023/04/02 11:55:53;;;;;;;3.30;1.90;;;;;;;12.28;47.10;98664.66;78117;1303;3057978;-71
2023/04/02 11:58:28;;;;;;;3.30;1.80;;;;;;;12.32;46.50;98662.90;78846;1299;3011463;-72
2023/04/02 12:01:21;;;;;;;5.40;2.20;;;;;;;12.38;46.72;98661.73;78831;1296;3011312;-71
2023/04/02 12:04:11;;;;;;;2.60;1.50;;;;;;;12.44;46.31;98653.87;78175;1301;3049751;-70
2023/04/02 12:06:45;;;;;;;3.80;2.00;;;;;;;12.49;46.06;98653.30;78134;1299;3052936;-72
2023/04/02 12:09:25;;;;;;;3.10;1.80;;;;;;;12.48;46.21;98657.36;78834;1301;3011606;-72
2023/04/02 12:11:57;;;;;;;4.60;2.10;;;;;;;12.37;46.04;98655.96;78222;1300;3049450;-71